createdAt,value
2018-02-12T00:00:01.882Z,2.67
2018-02-12T00:02:29.953Z,2.63
2018-02-12T00:04:58.329Z,2.65
2018-02-12T00:07:26.704Z,2.60
2018-02-12T00:09:55.028Z,2.63
2018-02-12T00:12:23.352Z,2.56
2018-02-12T00:14:51.669Z,2.58
2018-02-12T00:17:19.980Z,2.54
2018-02-12T00:19:48.321Z,2.59
2018-02-12T00:22:16.665Z,2.55
2018-02-12T00:24:44.993Z,2.60
2018-02-12T00:27:13.313Z,2.64
2018-02-12T00:29:41.651Z,2.61
2018-02-12T00:32:09.957Z,2.55
2018-02-12T00:34:38.268Z,2.56
2018-02-12T00:37:06.596Z,2.53
2018-02-12T00:39:34.910Z,2.51
2018-02-12T00:42:03.237Z,2.42
2018-02-12T00:44:31.644Z,2.42
2018-02-12T00:47:00.026Z,2.44
2018-02-12T00:49:28.345Z,2.37
2018-02-12T00:51:56.781Z,2.37
2018-02-12T00:54:25.161Z,2.38
2018-02-12T00:56:53.497Z,2.44
2018-02-12T00:59:21.909Z,2.40
2018-02-12T01:01:50.289Z,2.36
2018-02-12T01:04:18.597Z,2.45
2018-02-12T01:06:46.953Z,2.37
2018-02-12T01:09:15.322Z,2.36
2018-02-12T01:11:43.693Z,2.36
2018-02-12T01:14:12.029Z,2.33
2018-02-12T01:16:40.332Z,2.33
2018-02-12T01:19:08.671Z,2.30
2018-02-12T01:21:36.996Z,2.32
2018-02-12T01:24:05.377Z,2.30
2018-02-12T01:26:33.685Z,2.32
2018-02-12T01:29:02.022Z,2.28
2018-02-12T01:31:30.404Z,2.27
2018-02-12T01:33:58.737Z,2.25
2018-02-12T01:36:27.053Z,2.18
2018-02-12T01:38:55.646Z,2.11
2018-02-12T01:41:23.953Z,2.10
2018-02-12T01:43:52.301Z,2.12
2018-02-12T01:46:20.673Z,1.98
2018-02-12T01:48:49.054Z,1.95
2018-02-12T01:51:17.369Z,2.03
2018-02-12T01:53:45.805Z,2.04
2018-02-12T01:56:14.125Z,2.03
2018-02-12T01:58:42.436Z,2.08
2018-02-12T02:01:10.769Z,2.12
2018-02-12T02:03:39.086Z,2.14
2018-02-12T02:06:07.434Z,2.15
2018-02-12T02:08:35.763Z,2.18
2018-02-12T02:11:04.092Z,2.15
2018-02-12T02:13:32.508Z,2.22
2018-02-12T02:16:00.853Z,2.26
2018-02-12T02:18:29.212Z,2.16
2018-02-12T02:20:57.556Z,2.21
2018-02-12T02:23:25.874Z,2.12
2018-02-12T02:25:54.204Z,2.11
2018-02-12T02:28:22.577Z,2.04
2018-02-12T02:30:50.918Z,2.05
2018-02-12T02:33:19.333Z,2.14
2018-02-12T02:35:49.498Z,2.13
2018-02-12T02:38:17.825Z,2.13
2018-02-12T02:40:46.206Z,2.21
2018-02-12T02:43:14.577Z,2.22
2018-02-12T02:45:42.949Z,2.17
2018-02-12T02:48:11.289Z,2.20
2018-02-12T02:50:39.609Z,2.27
2018-02-12T02:53:07.954Z,2.32
2018-02-12T02:55:36.268Z,2.29
2018-02-12T02:58:04.601Z,2.32
2018-02-12T03:00:32.959Z,2.29
2018-02-12T03:03:01.393Z,2.24
2018-02-12T03:05:29.708Z,2.25
2018-02-12T03:07:58.049Z,2.23
2018-02-12T03:10:26.416Z,2.35
2018-02-12T03:12:54.810Z,2.29
2018-02-12T03:15:23.128Z,2.27
2018-02-12T03:17:51.457Z,2.29
2018-02-12T03:20:19.777Z,2.28
2018-02-12T03:22:48.213Z,2.28
2018-02-12T03:25:16.585Z,2.22
2018-02-12T03:27:44.961Z,2.26
2018-02-12T03:30:13.285Z,2.23
2018-02-12T03:32:41.717Z,2.21
2018-02-12T03:35:10.105Z,2.23
2018-02-12T03:37:38.473Z,2.26
2018-02-12T03:40:06.792Z,2.34
2018-02-12T03:42:35.242Z,2.31
2018-02-12T03:45:03.561Z,2.34
2018-02-12T03:47:31.980Z,2.38
2018-02-12T03:50:00.356Z,2.36
2018-02-12T03:52:28.695Z,2.35
2018-02-12T03:54:57.113Z,2.36
2018-02-12T03:57:25.489Z,2.37
2018-02-12T03:59:53.861Z,2.35
2018-02-12T04:02:22.245Z,2.44
2018-02-12T04:04:50.624Z,2.37
2018-02-12T04:07:18.961Z,2.36
2018-02-12T04:09:47.373Z,2.31
2018-02-12T04:12:15.754Z,2.35
2018-02-12T04:14:44.065Z,2.31
2018-02-12T04:17:12.504Z,2.30
2018-02-12T04:19:40.881Z,2.34
2018-02-12T04:22:09.221Z,2.26
2018-02-12T04:24:37.565Z,2.26
2018-02-12T04:27:05.905Z,2.22
2018-02-12T04:29:34.225Z,2.19
2018-02-12T04:32:02.666Z,2.22
2018-02-12T04:34:30.985Z,2.21
2018-02-12T04:36:59.416Z,2.19
2018-02-12T04:39:27.737Z,2.24
2018-02-12T04:41:56.178Z,2.26
2018-02-12T04:44:24.502Z,2.35
2018-02-12T04:46:52.809Z,2.27
2018-02-12T04:49:21.204Z,2.34
2018-02-12T04:51:49.524Z,2.36
2018-02-12T04:54:17.861Z,2.37
2018-02-12T04:56:46.181Z,2.34
2018-02-12T04:59:14.521Z,2.30
2018-02-12T05:01:42.842Z,2.36
2018-02-12T05:04:11.182Z,2.31
2018-02-12T05:06:39.506Z,2.36
2018-02-12T05:09:07.841Z,2.33
2018-02-12T05:11:36.158Z,2.27
2018-02-12T05:14:04.499Z,2.16
2018-02-12T05:16:32.818Z,2.17
2018-02-12T05:19:01.153Z,2.14
2018-02-12T05:21:29.469Z,2.13
2018-02-12T05:23:58.681Z,2.09
2018-02-12T05:26:26.998Z,1.96
2018-02-12T05:28:55.340Z,1.93
2018-02-12T05:31:23.657Z,1.96
2018-02-12T05:33:51.998Z,1.94
2018-02-12T05:36:20.318Z,1.82
2018-02-12T05:38:48.657Z,1.85
2018-02-12T05:41:16.979Z,1.79
2018-02-12T05:43:45.324Z,1.85
2018-02-12T05:46:14.561Z,1.79
2018-02-12T05:48:42.908Z,1.82
2018-02-12T05:51:11.222Z,1.81
2018-02-12T05:53:39.686Z,1.87
2018-02-12T05:56:08.023Z,1.85
2018-02-12T05:58:36.853Z,1.89
2018-02-12T06:01:05.170Z,2.05
2018-02-12T06:03:33.513Z,2.39
2018-02-12T06:06:01.837Z,2.33
2018-02-12T06:08:30.181Z,2.25
2018-02-12T06:10:58.521Z,2.13
2018-02-12T06:13:27.181Z,2.08
2018-02-12T06:15:56.428Z,2.00
2018-02-12T06:18:24.782Z,1.95
2018-02-12T06:20:53.109Z,1.94
2018-02-12T06:23:21.453Z,1.99
2018-02-12T06:25:49.781Z,1.95
2018-02-12T06:28:18.129Z,1.97
2018-02-12T06:30:46.453Z,2.05
2018-02-12T06:33:14.806Z,2.01
2018-02-12T06:35:43.134Z,2.06
2018-02-12T06:38:11.477Z,2.11
2018-02-12T06:40:39.806Z,2.05
2018-02-12T06:43:08.153Z,2.07
2018-02-12T06:45:36.490Z,2.06
2018-02-12T06:48:04.853Z,2.14
2018-02-12T06:50:33.206Z,2.08
2018-02-12T06:53:01.845Z,2.06
2018-02-12T06:55:30.193Z,2.09
2018-02-12T06:57:58.526Z,2.10
2018-02-12T07:00:26.881Z,2.07
2018-02-12T07:02:55.209Z,2.07
2018-02-12T07:05:23.558Z,2.10
2018-02-12T07:07:51.889Z,2.14
2018-02-12T07:10:20.237Z,2.12
2018-02-12T07:12:49.482Z,2.11
2018-02-12T07:15:17.833Z,2.10
2018-02-12T07:17:46.165Z,2.14
2018-02-12T07:20:14.517Z,2.13
2018-02-12T07:22:42.849Z,2.18
2018-02-12T07:25:11.364Z,2.15
2018-02-12T07:27:39.759Z,2.18
2018-02-12T07:30:08.089Z,2.17
2018-02-12T07:32:37.213Z,2.28
2018-02-12T07:35:05.565Z,2.30
2018-02-12T07:37:33.894Z,2.37
2018-02-12T07:40:02.257Z,2.40
2018-02-12T07:42:30.662Z,2.29
2018-02-12T07:44:59.004Z,2.26
2018-02-12T07:47:27.330Z,2.32
2018-02-12T07:49:55.688Z,2.32
2018-02-12T07:52:24.010Z,2.31
2018-02-12T07:54:52.385Z,2.33
2018-02-12T07:57:20.903Z,2.38
2018-02-12T07:59:49.229Z,2.41
2018-02-12T08:02:17.562Z,2.41
2018-02-12T08:04:45.909Z,2.42
2018-02-12T08:07:14.237Z,2.43
2018-02-12T08:09:42.589Z,2.37
2018-02-12T08:12:11.382Z,2.36
2018-02-12T08:14:39.721Z,2.35
2018-02-12T08:17:08.054Z,2.39
2018-02-12T08:19:36.400Z,2.39
2018-02-12T08:22:04.733Z,2.38
2018-02-12T08:24:33.541Z,2.37
2018-02-12T08:27:02.553Z,2.37
2018-02-12T08:29:30.884Z,2.45
2018-02-12T08:31:59.214Z,2.43
2018-02-12T08:34:27.563Z,2.50
2018-02-12T08:36:55.885Z,2.50
2018-02-12T08:39:24.239Z,2.54
2018-02-12T08:41:52.561Z,2.59
2018-02-12T08:44:20.909Z,2.61
2018-02-12T08:46:49.233Z,2.62
2018-02-12T08:49:17.579Z,2.63
2018-02-12T08:51:45.901Z,2.62
2018-02-12T08:54:14.227Z,2.65
2018-02-12T08:56:42.573Z,2.69
2018-02-12T08:59:10.897Z,2.81
2018-02-12T09:01:39.293Z,2.91
2018-02-12T09:04:10.346Z,3.00
2018-02-12T09:06:38.814Z,3.04
2018-02-12T09:09:07.233Z,3.04
2018-02-12T09:11:35.576Z,3.08
2018-02-12T09:14:03.901Z,3.07
2018-02-12T09:16:32.250Z,2.95
2018-02-12T09:19:00.569Z,2.92
2018-02-12T09:21:28.909Z,2.92
2018-02-12T09:23:57.229Z,2.75
2018-02-12T09:26:25.573Z,2.67
2018-02-12T09:28:53.900Z,2.55
2018-02-12T09:31:22.237Z,2.57
2018-02-12T09:33:50.556Z,2.46
2018-02-12T09:36:19.805Z,2.47
2018-02-12T09:38:48.125Z,2.40
2018-02-12T09:41:16.486Z,2.38
2018-02-12T09:43:44.818Z,2.45
2018-02-12T09:46:13.161Z,2.49
2018-02-12T09:48:41.480Z,2.55
2018-02-12T09:51:10.869Z,2.62
2018-02-12T09:53:40.022Z,2.67
2018-02-12T09:56:08.421Z,2.69
2018-02-12T09:58:36.740Z,2.77
2018-02-12T10:01:05.090Z,2.79
2018-02-12T10:03:33.413Z,2.90
2018-02-12T10:06:01.758Z,2.92
2018-02-12T10:08:30.077Z,2.98
2018-02-12T10:10:58.907Z,3.00
2018-02-12T10:13:27.233Z,3.05
2018-02-12T10:15:55.573Z,3.04
2018-02-12T10:18:23.893Z,3.09
2018-02-12T10:20:52.953Z,3.17
2018-02-12T10:23:21.273Z,3.32
2018-02-12T10:25:49.622Z,3.41
2018-02-12T10:28:17.937Z,3.47
2018-02-12T10:30:46.278Z,3.46
2018-02-12T10:33:14.600Z,3.46
2018-02-12T10:35:43.042Z,3.44
2018-02-12T10:38:11.358Z,3.39
2018-02-12T10:40:39.741Z,3.36
2018-02-12T10:43:08.057Z,3.33
2018-02-12T10:45:36.393Z,3.24
2018-02-12T10:48:04.791Z,3.17
2018-02-12T10:50:33.201Z,3.22
2018-02-12T10:53:01.516Z,3.23
2018-02-12T10:55:30.021Z,3.34
2018-02-12T10:57:58.321Z,3.38
2018-02-12T11:00:26.836Z,3.49
2018-02-12T11:02:55.173Z,3.54
2018-02-12T11:05:24.121Z,3.51
2018-02-12T11:07:52.438Z,3.62
2018-02-12T11:10:20.808Z,3.54
2018-02-12T11:12:51.702Z,3.54
2018-02-12T11:15:21.828Z,3.50
2018-02-12T11:17:50.444Z,3.61
2018-02-12T11:20:18.833Z,3.66
2018-02-12T11:22:52.902Z,3.73
2018-02-12T11:25:22.453Z,3.80
2018-02-12T11:27:50.794Z,3.77
2018-02-12T11:30:19.131Z,3.75
2018-02-12T11:32:47.753Z,3.83
2018-02-12T11:35:16.684Z,3.86
2018-02-12T11:37:45.137Z,3.77
2018-02-12T11:40:13.530Z,3.72
2018-02-12T11:42:41.917Z,3.78
2018-02-12T11:45:20.553Z,3.77
2018-02-12T11:47:49.110Z,3.84
2018-02-12T11:50:17.483Z,3.84
2018-02-12T11:52:45.961Z,3.78
2018-02-12T11:55:14.342Z,3.94
2018-02-12T11:57:42.838Z,4.00
2018-02-12T12:00:11.146Z,4.07
2018-02-12T12:02:39.631Z,4.15
2018-02-12T12:05:08.007Z,4.24
2018-02-12T12:07:36.590Z,4.30
2018-02-12T12:10:05.022Z,4.41
2018-02-12T12:12:33.877Z,4.57
2018-02-12T12:15:02.231Z,4.56
2018-02-12T12:17:30.753Z,4.58
2018-02-12T12:19:59.237Z,4.61
2018-02-12T12:22:27.565Z,4.70
2018-02-12T12:24:55.885Z,4.67
2018-02-12T12:27:24.353Z,4.59
2018-02-12T12:29:52.769Z,4.55
2018-02-12T12:32:21.345Z,4.51
2018-02-12T12:34:49.686Z,4.63
2018-02-12T12:37:18.137Z,4.68
2018-02-12T12:39:46.562Z,4.78
2018-02-12T12:42:14.897Z,4.76
2018-02-12T12:44:43.453Z,4.81
2018-02-12T12:47:11.909Z,4.86
2018-02-12T12:49:40.235Z,4.83
2018-02-12T12:52:08.596Z,4.74
2018-02-12T12:54:36.910Z,4.74
2018-02-12T12:57:05.309Z,4.67
2018-02-12T12:59:33.738Z,4.81
2018-02-12T13:02:02.166Z,4.93
2018-02-12T13:04:31.153Z,4.91
2018-02-12T13:06:59.525Z,5.08
2018-02-12T13:09:27.909Z,5.14
2018-02-12T13:11:56.287Z,5.06
2018-02-12T13:14:24.610Z,5.16
2018-02-12T13:16:52.994Z,5.20
2018-02-12T13:19:21.313Z,5.45
2018-02-12T13:21:49.658Z,5.44
2018-02-12T13:24:18.020Z,5.40
2018-02-12T13:26:46.341Z,5.17
2018-02-12T13:29:14.726Z,5.09
2018-02-12T13:31:43.046Z,5.08
2018-02-12T13:34:11.384Z,5.17
2018-02-12T13:36:39.709Z,5.25
2018-02-12T13:39:08.059Z,5.30
2018-02-12T13:41:36.401Z,5.24
2018-02-12T13:44:04.783Z,5.32
2018-02-12T13:46:33.097Z,5.37
2018-02-12T13:49:01.486Z,5.48
2018-02-12T13:51:29.801Z,5.47
2018-02-12T13:53:58.225Z,5.35
2018-02-12T13:56:27.484Z,5.28
2018-02-12T13:58:55.862Z,5.36
2018-02-12T14:01:24.241Z,5.37
2018-02-12T14:03:52.586Z,5.51
2018-02-12T14:06:20.909Z,5.58
2018-02-12T14:08:49.253Z,5.69
2018-02-12T14:11:17.577Z,5.61
2018-02-12T14:13:46.817Z,5.43
2018-02-12T14:16:15.156Z,5.22
2018-02-12T14:18:43.499Z,5.03
2018-02-12T14:21:11.821Z,4.92
2018-02-12T14:23:40.253Z,4.76
2018-02-12T14:26:09.501Z,4.76
2018-02-12T14:28:37.921Z,4.79
2018-02-12T14:31:06.301Z,4.80
2018-02-12T14:33:34.678Z,4.71
2018-02-12T14:36:03.977Z,4.75
2018-02-12T14:38:32.309Z,4.73
2018-02-12T14:41:00.729Z,4.82
2018-02-12T14:43:29.153Z,4.89
2018-02-12T14:45:58.513Z,4.90
2018-02-12T14:48:26.852Z,4.89
2018-02-12T14:50:55.173Z,4.96
2018-02-12T14:53:23.521Z,4.92
2018-02-12T14:55:51.913Z,4.73
2018-02-12T14:58:20.255Z,4.65
2018-02-12T15:00:49.085Z,4.60
2018-02-12T15:03:17.458Z,4.22
2018-02-12T15:05:45.832Z,3.98
2018-02-12T15:08:14.170Z,3.78
2018-02-12T15:10:42.584Z,3.55
2018-02-12T15:13:10.930Z,3.57
2018-02-12T15:15:39.259Z,3.60
2018-02-12T15:18:07.588Z,3.54
2018-02-12T15:20:36.846Z,3.57
2018-02-12T15:23:05.293Z,3.60
2018-02-12T15:25:33.613Z,3.66
2018-02-12T15:28:01.957Z,3.69
2018-02-12T15:30:30.280Z,3.80
2018-02-12T15:32:58.698Z,3.97
2018-02-12T15:35:27.235Z,3.98
2018-02-12T15:37:55.630Z,3.86
2018-02-12T15:40:24.554Z,3.71
2018-02-12T15:42:52.869Z,3.58
2018-02-12T15:45:21.241Z,3.52
2018-02-12T15:47:49.566Z,3.62
2018-02-12T15:50:17.907Z,3.47
2018-02-12T15:52:46.241Z,3.22
2018-02-12T15:55:14.565Z,2.84
2018-02-12T15:57:42.886Z,2.63
2018-02-12T16:00:11.226Z,2.50
2018-02-12T16:02:39.550Z,2.25
2018-02-12T16:05:07.933Z,2.20
2018-02-12T16:07:36.249Z,2.21
2018-02-12T16:10:04.589Z,2.32
2018-02-12T16:12:32.910Z,2.30
2018-02-12T16:15:01.246Z,2.27
2018-02-12T16:17:30.029Z,2.29
2018-02-12T16:19:58.395Z,2.20
2018-02-12T16:22:26.757Z,2.28
2018-02-12T16:24:55.093Z,2.15
2018-02-12T16:27:23.414Z,2.06
2018-02-12T16:29:51.789Z,1.92
2018-02-12T16:32:20.166Z,1.85
2018-02-12T16:34:48.541Z,1.81
2018-02-12T16:37:16.918Z,1.78
2018-02-12T16:39:45.256Z,1.75
2018-02-12T16:42:13.673Z,1.79
2018-02-12T16:44:42.049Z,1.79
2018-02-12T16:47:10.432Z,1.77
2018-02-12T16:49:38.805Z,1.81
2018-02-12T16:52:07.117Z,1.84
2018-02-12T16:54:35.563Z,1.71
2018-02-12T16:57:04.386Z,1.64
2018-02-12T16:59:32.730Z,1.73
2018-02-12T17:02:01.120Z,1.70
2018-02-12T17:04:32.009Z,1.92
2018-02-12T17:07:01.120Z,1.91
2018-02-12T17:09:31.018Z,1.78
2018-02-12T17:11:59.334Z,1.61
2018-02-12T17:14:27.668Z,1.64
2018-02-12T17:16:55.985Z,1.49
2018-02-12T17:19:24.321Z,1.42
2018-02-12T17:21:52.643Z,1.37
2018-02-12T17:24:20.997Z,1.39
2018-02-12T17:26:49.293Z,1.32
2018-02-12T17:29:17.629Z,1.37
2018-02-12T17:31:45.945Z,1.57
2018-02-12T17:34:14.286Z,1.56
2018-02-12T17:36:42.603Z,1.54
2018-02-12T17:39:11.501Z,1.49
2018-02-12T17:41:39.829Z,1.48
2018-02-12T17:44:08.149Z,1.43
2018-02-12T17:46:36.483Z,1.34
2018-02-12T17:49:04.880Z,1.35
2018-02-12T17:51:33.254Z,1.48
2018-02-12T17:54:01.570Z,1.43
2018-02-12T17:56:29.925Z,1.38
2018-02-12T17:58:59.145Z,1.10
2018-02-12T18:01:27.482Z,1.16
2018-02-12T18:03:55.806Z,1.03
2018-02-12T18:06:24.146Z,0.92
2018-02-12T18:08:52.458Z,0.96
2018-02-12T18:11:20.801Z,1.03
2018-02-12T18:13:49.122Z,1.10
2018-02-12T18:16:18.437Z,1.27
2018-02-12T18:18:46.750Z,1.27
2018-02-12T18:21:15.157Z,1.09
2018-02-12T18:23:43.498Z,1.01
2018-02-12T18:26:11.860Z,0.96
2018-02-12T18:28:40.250Z,1.01
2018-02-12T18:31:08.588Z,0.97
2018-02-12T18:33:37.001Z,0.91
2018-02-12T18:36:05.350Z,1.12
2018-02-12T18:38:34.450Z,0.93
2018-02-12T18:41:02.851Z,1.00
2018-02-12T18:43:31.225Z,1.11
2018-02-12T18:45:59.569Z,0.95
2018-02-12T18:48:27.894Z,0.90
2018-02-12T18:50:56.250Z,0.94
2018-02-12T18:53:24.721Z,0.89
2018-02-12T18:55:53.118Z,0.95
2018-02-12T18:58:21.451Z,1.08
2018-02-12T19:00:49.797Z,1.08
2018-02-12T19:03:18.117Z,0.92
2018-02-12T19:05:47.238Z,0.97
2018-02-12T19:08:15.612Z,0.90
2018-02-12T19:10:43.995Z,0.94
2018-02-12T19:13:12.321Z,1.12
2018-02-12T19:15:40.691Z,1.06
2018-02-12T19:18:09.009Z,1.05
2018-02-12T19:20:37.401Z,1.05
2018-02-12T19:23:05.773Z,1.17
2018-02-12T19:25:34.134Z,1.27
2018-02-12T19:28:02.533Z,1.34
2018-02-12T19:30:30.886Z,1.29
2018-02-12T19:32:59.290Z,1.35
2018-02-12T19:35:27.629Z,1.30
2018-02-12T19:37:55.949Z,1.01
2018-02-12T19:40:24.447Z,0.88
2018-02-12T19:42:54.065Z,0.87
2018-02-12T19:45:22.458Z,0.82
2018-02-12T19:47:50.886Z,0.97
2018-02-12T19:50:19.201Z,1.03
2018-02-12T19:52:47.552Z,1.10
2018-02-12T19:55:15.861Z,1.21
2018-02-12T19:57:44.498Z,1.17
2018-02-12T20:00:12.821Z,1.15
2018-02-12T20:02:41.246Z,0.88
2018-02-12T20:05:09.568Z,0.82
2018-02-12T20:07:38.000Z,0.66
2018-02-12T20:10:06.326Z,0.57
2018-02-12T20:12:34.670Z,0.60
2018-02-12T20:15:03.029Z,0.58
2018-02-12T20:17:31.406Z,0.54
2018-02-12T20:19:59.785Z,0.60
2018-02-12T20:22:28.135Z,0.58
2018-02-12T20:24:56.461Z,0.61
2018-02-12T20:27:24.826Z,0.62
2018-02-12T20:29:53.246Z,0.71
2018-02-12T20:32:21.565Z,0.84
2018-02-12T20:34:49.888Z,0.73
2018-02-12T20:37:22.089Z,0.69
2018-02-12T20:39:50.524Z,0.81
2018-02-12T20:42:18.874Z,0.80
2018-02-12T20:44:47.193Z,0.80
2018-02-12T20:47:15.630Z,0.80
2018-02-12T20:49:43.997Z,0.65
2018-02-12T20:52:12.342Z,0.57
2018-02-12T20:54:40.753Z,0.52
2018-02-12T20:57:09.097Z,0.46
2018-02-12T20:59:37.425Z,0.36
2018-02-12T21:02:05.772Z,0.50
2018-02-12T21:04:34.160Z,0.40
2018-02-12T21:07:02.509Z,0.46
2018-02-12T21:09:30.824Z,0.41
2018-02-12T21:11:59.162Z,0.54
2018-02-12T21:14:27.485Z,0.74
2018-02-12T21:16:55.828Z,0.69
2018-02-12T21:19:24.213Z,0.80
2018-02-12T21:21:52.593Z,0.68
2018-02-12T21:24:20.918Z,0.56
2018-02-12T21:26:49.261Z,0.55
2018-02-12T21:29:17.612Z,0.71
2018-02-12T21:31:45.962Z,0.72
2018-02-12T21:34:14.637Z,0.55
2018-02-12T21:36:43.034Z,0.61
2018-02-12T21:39:11.364Z,0.70
2018-02-12T21:41:39.713Z,0.50
2018-02-12T21:44:08.034Z,0.37
2018-02-12T21:46:36.465Z,0.26
2018-02-12T21:49:04.842Z,0.24
2018-02-12T21:51:33.230Z,0.19
2018-02-12T21:54:01.576Z,0.23
2018-02-12T21:56:29.977Z,0.35
2018-02-12T21:58:58.358Z,0.47
2018-02-12T22:01:26.682Z,0.29
2018-02-12T22:03:55.113Z,0.25
2018-02-12T22:06:23.485Z,0.32
2018-02-12T22:08:51.838Z,0.25
2018-02-12T22:11:20.237Z,0.33
2018-02-12T22:13:48.585Z,0.37
2018-02-12T22:16:17.879Z,0.26
2018-02-12T22:18:46.298Z,0.32
2018-02-12T22:21:14.626Z,0.28
2018-02-12T22:23:43.054Z,0.31
2018-02-12T22:26:11.385Z,0.22
2018-02-12T22:28:39.733Z,0.22
2018-02-12T22:31:08.088Z,0.19
2018-02-12T22:33:36.457Z,0.14
2018-02-12T22:36:04.833Z,0.16
2018-02-12T22:38:33.181Z,0.13
2018-02-12T22:41:01.596Z,0.09
2018-02-12T22:43:29.942Z,0.13
2018-02-12T22:45:58.286Z,0.13
2018-02-12T22:48:26.665Z,0.09
2018-02-12T22:50:55.098Z,0.12
2018-02-12T22:53:23.473Z,0.15
2018-02-12T22:55:51.806Z,0.18
2018-02-12T22:58:20.229Z,0.12
2018-02-12T23:00:48.565Z,0.23
2018-02-12T23:03:16.985Z,0.21
2018-02-12T23:05:45.465Z,0.16
2018-02-12T23:08:13.794Z,0.11
2018-02-12T23:10:42.222Z,0.11
2018-02-12T23:13:10.571Z,0.08
2018-02-12T23:15:38.889Z,0.05
2018-02-12T23:18:07.233Z,0.13
2018-02-12T23:20:35.564Z,0.08
2018-02-12T23:23:03.902Z,0.16
2018-02-12T23:25:32.229Z,0.18
2018-02-12T23:28:00.648Z,0.15
2018-02-12T23:30:29.029Z,0.15
2018-02-12T23:32:57.404Z,0.29
2018-02-12T23:35:25.729Z,0.17
2018-02-12T23:37:54.074Z,0.06
2018-02-12T23:40:22.397Z,0.05
2018-02-12T23:42:50.816Z,0.03
2018-02-12T23:45:19.189Z,0.17
2018-02-12T23:47:47.569Z,0.19
2018-02-12T23:50:15.949Z,0.13
2018-02-12T23:52:44.325Z,0.11
2018-02-12T23:55:12.702Z,0.02
2018-02-12T23:57:41.034Z,-0.07
